createdAt,value
2022-10-30T00:00:56.199Z,18.00
2022-10-30T00:03:23.936Z,17.88
2022-10-30T00:05:52.700Z,17.84
2022-10-30T00:08:24.269Z,17.90
2022-10-30T00:10:52.377Z,17.94
2022-10-30T00:13:26.765Z,17.96
2022-10-30T00:16:04.890Z,17.97
2022-10-30T00:18:35.176Z,17.93
2022-10-30T00:21:10.433Z,17.90
2022-10-30T00:23:46.664Z,17.91
2022-10-30T00:26:17.172Z,17.84
2022-10-30T00:28:54.349Z,17.84
2022-10-30T00:31:25.006Z,17.85
2022-10-30T00:33:54.155Z,17.89
2022-10-30T00:36:24.958Z,17.88
2022-10-30T00:38:52.672Z,17.86
2022-10-30T00:41:25.360Z,17.81
2022-10-30T00:43:56.055Z,17.82
2022-10-30T00:46:45.315Z,17.82
2022-10-30T00:49:21.074Z,17.77
2022-10-30T00:51:53.517Z,17.73
2022-10-30T00:54:22.797Z,17.68
2022-10-30T00:56:52.490Z,17.71
2022-10-30T00:59:30.097Z,17.68
2022-10-30T01:02:03.056Z,17.67
2022-10-30T01:04:33.844Z,17.66
2022-10-30T01:07:09.777Z,17.65
2022-10-30T01:09:39.118Z,17.70
2022-10-30T01:12:06.447Z,17.72
2022-10-30T01:14:39.025Z,17.70
2022-10-30T01:17:16.929Z,17.76
2022-10-30T01:20:13.219Z,17.79
2022-10-30T01:22:53.353Z,17.81
2022-10-30T01:25:47.454Z,17.87
2022-10-30T01:28:51.353Z,17.92
2022-10-30T01:31:57.092Z,17.91
2022-10-30T01:37:27.936Z,17.98
2022-10-30T01:39:55.544Z,18.00
2022-10-30T01:42:46.641Z,18.01
2022-10-30T01:45:22.357Z,18.06
2022-10-30T01:48:14.197Z,18.08
2022-10-30T01:51:11.041Z,18.08
2022-10-30T01:53:59.317Z,18.09
2022-10-30T01:56:57.172Z,18.12
2022-10-30T01:59:32.141Z,18.22
2022-10-30T02:01:59.286Z,18.31
2022-10-30T02:04:27.093Z,18.37
2022-10-30T02:06:54.106Z,18.37
2022-10-30T02:09:21.099Z,18.42
2022-10-30T02:11:52.382Z,18.44
2022-10-30T02:14:29.845Z,18.44
2022-10-30T02:16:58.773Z,18.50
2022-10-30T02:19:25.511Z,18.53
2022-10-30T02:21:53.831Z,18.55
2022-10-30T02:24:20.870Z,18.59
2022-10-30T02:26:48.044Z,18.64
2022-10-30T02:29:14.807Z,18.68
2022-10-30T02:31:42.008Z,18.70
2022-10-30T02:34:08.756Z,18.69
2022-10-30T02:36:35.514Z,18.72
2022-10-30T02:39:02.307Z,18.76
2022-10-30T02:41:29.367Z,18.81
2022-10-30T02:43:56.384Z,18.80
2022-10-30T02:46:23.175Z,18.76
2022-10-30T02:48:50.049Z,18.75
2022-10-30T02:51:17.215Z,18.73
2022-10-30T02:53:45.322Z,18.70
2022-10-30T02:56:13.595Z,18.65
2022-10-30T02:58:43.736Z,18.63
2022-10-30T03:01:19.312Z,18.56
2022-10-30T03:03:47.164Z,18.54
2022-10-30T03:06:16.753Z,18.54
2022-10-30T03:08:44.466Z,18.55
2022-10-30T03:11:14.967Z,18.53
2022-10-30T03:13:43.150Z,18.51
2022-10-30T03:16:16.045Z,18.52
2022-10-30T03:18:43.729Z,18.51
2022-10-30T03:21:14.239Z,18.51
2022-10-30T03:23:41.075Z,18.48
2022-10-30T03:26:07.889Z,18.43
2022-10-30T03:28:47.351Z,18.39
2022-10-30T03:31:16.983Z,18.35
2022-10-30T03:33:44.258Z,18.33
2022-10-30T03:36:13.693Z,18.32
2022-10-30T03:38:41.617Z,18.33
2022-10-30T03:41:10.240Z,18.33
2022-10-30T03:43:37.203Z,18.40
2022-10-30T03:46:05.031Z,18.48
2022-10-30T03:48:32.688Z,18.50
2022-10-30T03:51:00.006Z,18.55
2022-10-30T03:53:29.143Z,18.56
2022-10-30T03:56:05.357Z,18.56
2022-10-30T03:58:41.559Z,18.58
2022-10-30T04:01:11.662Z,18.59
2022-10-30T04:03:44.376Z,18.56
2022-10-30T04:06:12.195Z,18.43
2022-10-30T04:08:39.028Z,18.42
2022-10-30T04:11:06.104Z,18.42
2022-10-30T04:13:32.965Z,18.43
2022-10-30T04:16:00.988Z,18.47
2022-10-30T04:18:28.149Z,18.42
2022-10-30T04:20:55.207Z,18.42
2022-10-30T04:23:23.003Z,18.40
2022-10-30T04:25:49.787Z,18.38
2022-10-30T04:28:17.421Z,18.35
2022-10-30T04:30:45.846Z,18.33
2022-10-30T04:33:14.894Z,18.34
2022-10-30T04:35:42.610Z,18.31
2022-10-30T04:38:14.741Z,18.31
2022-10-30T04:40:43.732Z,18.34
2022-10-30T04:43:13.021Z,18.38
2022-10-30T04:45:40.864Z,18.45
2022-10-30T04:48:11.497Z,18.50
2022-10-30T04:50:38.956Z,18.53
2022-10-30T04:53:12.042Z,18.53
2022-10-30T04:55:38.846Z,18.56
2022-10-30T04:58:07.973Z,18.56
2022-10-30T05:00:37.510Z,18.55
2022-10-30T05:03:19.781Z,18.54
2022-10-30T05:06:07.989Z,18.55
2022-10-30T05:08:34.728Z,18.56
2022-10-30T05:11:10.512Z,18.63
2022-10-30T05:13:37.319Z,18.64
2022-10-30T05:16:04.423Z,18.65
2022-10-30T05:18:32.030Z,18.74
2022-10-30T05:20:58.863Z,18.77
2022-10-30T05:23:25.801Z,18.82
2022-10-30T05:25:54.292Z,18.87
2022-10-30T05:28:21.046Z,18.94
2022-10-30T05:30:55.979Z,18.99
2022-10-30T05:34:03.140Z,19.03
2022-10-30T05:36:33.401Z,19.09
2022-10-30T05:39:02.955Z,19.11
2022-10-30T05:41:36.431Z,19.19
2022-10-30T05:44:03.688Z,19.23
2022-10-30T05:46:31.563Z,19.25
2022-10-30T05:49:07.349Z,19.23
2022-10-30T05:51:38.002Z,19.20
2022-10-30T05:54:08.637Z,19.15
2022-10-30T05:56:39.912Z,19.15
2022-10-30T05:59:07.380Z,19.15
2022-10-30T06:01:34.348Z,19.19
2022-10-30T06:04:10.667Z,19.22
2022-10-30T06:06:37.428Z,19.27
2022-10-30T06:09:04.822Z,19.31
2022-10-30T06:11:54.989Z,19.29
2022-10-30T06:14:32.306Z,19.27
2022-10-30T06:16:59.647Z,19.32
2022-10-30T06:19:32.530Z,19.33
2022-10-30T06:22:19.533Z,19.33
2022-10-30T06:24:49.999Z,19.37
2022-10-30T06:27:29.582Z,19.37
2022-10-30T06:29:56.390Z,19.37
2022-10-30T06:32:23.181Z,19.41
2022-10-30T06:34:50.395Z,19.45
2022-10-30T06:37:18.233Z,19.44
2022-10-30T06:39:45.232Z,19.44
2022-10-30T06:42:50.606Z,19.45
2022-10-30T06:45:52.758Z,19.44
2022-10-30T06:48:19.625Z,19.43
2022-10-30T06:50:55.682Z,19.43
2022-10-30T06:53:23.558Z,19.45
2022-10-30T06:56:02.770Z,19.44
2022-10-30T06:58:58.035Z,19.37
2022-10-30T07:01:43.184Z,19.30
2022-10-30T07:04:17.647Z,19.28
2022-10-30T07:06:45.297Z,19.25
2022-10-30T07:09:12.238Z,19.26
2022-10-30T07:11:42.269Z,19.24
2022-10-30T07:14:22.321Z,19.29
2022-10-30T07:17:08.640Z,19.37
2022-10-30T07:19:36.204Z,19.44
2022-10-30T07:22:04.438Z,19.47
2022-10-30T07:24:32.961Z,19.50
2022-10-30T07:27:18.359Z,19.52
2022-10-30T07:29:53.535Z,19.51
2022-10-30T07:32:24.193Z,19.53
2022-10-30T07:35:13.171Z,19.58
2022-10-30T07:37:55.825Z,19.59
2022-10-30T07:40:34.880Z,19.63
2022-10-30T07:43:36.673Z,19.64
2022-10-30T07:46:21.889Z,19.64
2022-10-30T07:49:18.119Z,19.64
2022-10-30T07:51:50.101Z,19.65
2022-10-30T07:54:21.900Z,19.68
2022-10-30T07:56:50.317Z,19.69
2022-10-30T07:59:35.617Z,19.72
2022-10-30T08:02:24.008Z,19.76
2022-10-30T08:05:10.619Z,19.81
2022-10-30T08:08:00.208Z,19.85
2022-10-30T08:10:27.551Z,19.88
2022-10-30T08:12:54.565Z,19.92
2022-10-30T08:15:22.215Z,19.98
2022-10-30T08:17:50.415Z,20.02
2022-10-30T08:20:20.791Z,20.03
2022-10-30T08:22:57.416Z,20.05
2022-10-30T08:25:30.259Z,20.01
2022-10-30T08:28:03.598Z,19.94
2022-10-30T08:30:36.604Z,19.87
2022-10-30T08:33:07.327Z,19.83
2022-10-30T08:35:56.725Z,19.81
2022-10-30T08:38:23.855Z,19.85
2022-10-30T08:41:03.065Z,19.88
2022-10-30T08:43:32.086Z,19.94
2022-10-30T08:46:01.951Z,20.00
2022-10-30T08:48:28.772Z,20.05
2022-10-30T08:50:59.752Z,20.16
2022-10-30T08:53:31.312Z,20.27
2022-10-30T08:55:58.512Z,20.39
2022-10-30T08:58:31.783Z,20.47
2022-10-30T09:01:01.753Z,20.58
2022-10-30T09:03:51.561Z,20.66
2022-10-30T09:06:44.212Z,20.72
2022-10-30T09:09:37.183Z,20.77
2022-10-30T09:12:05.405Z,20.85
2022-10-30T09:14:39.206Z,20.93
2022-10-30T09:17:08.583Z,21.00
2022-10-30T09:19:37.260Z,21.04
2022-10-30T09:22:05.313Z,21.06
2022-10-30T09:24:33.753Z,21.05
2022-10-30T09:27:19.131Z,21.04
2022-10-30T09:29:49.129Z,21.00
2022-10-30T09:32:22.108Z,20.97
2022-10-30T09:34:54.688Z,20.93
2022-10-30T09:37:25.097Z,20.96
2022-10-30T09:39:55.358Z,20.91
2022-10-30T09:42:45.158Z,20.92
2022-10-30T09:45:32.198Z,20.95
2022-10-30T09:48:44.519Z,21.02
2022-10-30T09:51:49.326Z,21.15
2022-10-30T09:54:54.781Z,21.27
2022-10-30T09:57:52.206Z,21.38
2022-10-30T10:00:22.801Z,21.48
2022-10-30T10:03:16.227Z,21.55
2022-10-30T10:06:05.534Z,21.60
2022-10-30T10:09:29.989Z,21.63
2022-10-30T10:12:34.248Z,21.67
2022-10-30T10:15:07.909Z,21.72
2022-10-30T10:17:39.287Z,21.75
2022-10-30T10:20:20.843Z,21.80
2022-10-30T10:22:51.250Z,21.85
2022-10-30T10:25:20.587Z,21.92
2022-10-30T10:27:53.496Z,21.98
2022-10-30T10:30:22.854Z,22.05
2022-10-30T10:33:00.952Z,22.11
2022-10-30T10:35:40.035Z,22.18
2022-10-30T10:38:24.705Z,22.24
2022-10-30T10:41:07.850Z,22.25
2022-10-30T10:43:53.425Z,22.34
2022-10-30T10:46:28.935Z,22.38
2022-10-30T10:49:20.053Z,22.43
2022-10-30T10:52:07.445Z,22.52
2022-10-30T10:54:42.173Z,22.63
2022-10-30T10:57:16.739Z,22.71
2022-10-30T10:59:50.539Z,22.82
2022-10-30T11:02:46.219Z,23.01
2022-10-30T11:05:25.137Z,23.25
2022-10-30T11:07:53.117Z,23.49
2022-10-30T11:10:21.269Z,23.73
2022-10-30T11:12:48.177Z,23.97
2022-10-30T11:15:38.077Z,24.20
2022-10-30T11:18:08.776Z,24.47
2022-10-30T11:20:53.862Z,24.72
2022-10-30T11:23:43.163Z,25.03
2022-10-30T11:26:18.905Z,25.29
2022-10-30T11:29:04.300Z,25.52
2022-10-30T11:31:40.580Z,25.62
2022-10-30T11:34:17.636Z,25.77
2022-10-30T11:36:44.886Z,25.94
2022-10-30T11:39:17.950Z,26.09
2022-10-30T11:42:00.238Z,26.18
2022-10-30T11:44:31.863Z,26.29
2022-10-30T11:46:58.940Z,26.39
2022-10-30T11:49:52.671Z,26.51
2022-10-30T11:52:23.040Z,26.63
2022-10-30T11:55:00.650Z,26.69
2022-10-30T11:57:37.328Z,26.74
2022-10-30T12:00:15.381Z,26.79
2022-10-30T12:02:44.499Z,26.73
2022-10-30T12:05:49.397Z,26.71
2022-10-30T12:08:20.895Z,26.73
2022-10-30T12:10:57.499Z,26.65
2022-10-30T12:13:27.047Z,26.63
2022-10-30T12:16:18.760Z,26.72
2022-10-30T12:19:03.132Z,26.85
2022-10-30T12:21:40.387Z,26.95
2022-10-30T12:24:18.783Z,27.04
2022-10-30T12:26:53.164Z,27.16
2022-10-30T12:29:36.444Z,27.20
2022-10-30T12:32:19.306Z,27.16
2022-10-30T12:34:57.753Z,27.17
2022-10-30T12:37:29.518Z,27.32
2022-10-30T12:40:05.378Z,27.33
2022-10-30T12:42:37.289Z,27.35
2022-10-30T12:45:30.735Z,27.47
2022-10-30T12:48:22.876Z,27.57
2022-10-30T12:51:08.185Z,27.50
2022-10-30T12:53:44.700Z,27.47
2022-10-30T12:56:22.105Z,27.41
2022-10-30T12:59:21.156Z,27.31
2022-10-30T13:02:05.034Z,27.20
2022-10-30T13:04:46.197Z,27.14
2022-10-30T13:07:31.996Z,27.20
2022-10-30T13:09:58.650Z,27.14
2022-10-30T13:12:32.410Z,27.17
2022-10-30T13:15:22.872Z,27.28
2022-10-30T13:17:49.845Z,27.29
2022-10-30T13:20:17.246Z,27.24
2022-10-30T13:22:49.262Z,27.28
2022-10-30T13:25:22.208Z,27.29
2022-10-30T13:27:55.443Z,27.15
2022-10-30T13:30:25.618Z,27.12
2022-10-30T13:33:07.958Z,27.22
2022-10-30T13:35:44.126Z,27.41
2022-10-30T13:38:31.231Z,27.48
2022-10-30T13:41:16.237Z,27.49
2022-10-30T13:44:04.420Z,27.49
2022-10-30T13:46:54.462Z,27.57
2022-10-30T13:49:33.608Z,27.69
2022-10-30T13:52:20.986Z,27.77
2022-10-30T13:55:02.562Z,27.52
2022-10-30T13:57:47.456Z,27.15
2022-10-30T14:00:23.603Z,26.90
2022-10-30T14:03:11.876Z,26.72
2022-10-30T14:06:02.995Z,26.39
2022-10-30T14:08:57.209Z,26.18
2022-10-30T14:11:23.975Z,26.02
2022-10-30T14:13:55.379Z,25.91
2022-10-30T14:16:40.102Z,25.84
2022-10-30T14:19:11.658Z,25.73
2022-10-30T14:21:42.662Z,25.63
2022-10-30T14:24:09.508Z,25.55
2022-10-30T14:26:36.553Z,25.38
2022-10-30T14:29:29.019Z,25.24
2022-10-30T14:31:55.910Z,25.13
2022-10-30T14:34:41.345Z,24.96
2022-10-30T14:37:08.733Z,24.79
2022-10-30T14:39:43.412Z,24.66
2022-10-30T14:42:13.285Z,24.58
2022-10-30T14:45:16.097Z,24.51
2022-10-30T14:47:52.275Z,24.39
2022-10-30T14:50:30.363Z,24.31
2022-10-30T14:53:20.218Z,24.17
2022-10-30T14:56:07.113Z,23.98
2022-10-30T14:58:36.889Z,23.83
2022-10-30T15:01:03.681Z,23.68
2022-10-30T15:03:39.398Z,23.58
2022-10-30T15:06:31.610Z,23.51
2022-10-30T15:09:01.257Z,23.42
2022-10-30T15:11:27.962Z,23.35
2022-10-30T15:14:03.316Z,23.30
2022-10-30T15:16:30.861Z,23.22
2022-10-30T15:19:03.128Z,23.13
2022-10-30T15:21:33.793Z,23.06
2022-10-30T15:24:02.463Z,22.96
2022-10-30T15:26:35.720Z,22.92
2022-10-30T15:29:04.336Z,22.85
2022-10-30T15:31:31.219Z,22.80
2022-10-30T15:33:58.213Z,22.70
2022-10-30T15:36:35.255Z,22.56
2022-10-30T15:39:13.164Z,22.47
2022-10-30T15:41:47.250Z,22.40
2022-10-30T15:44:18.216Z,22.35
2022-10-30T15:47:47.828Z,22.28
2022-10-30T15:50:16.795Z,22.20
2022-10-30T15:52:44.181Z,22.16
2022-10-30T15:55:17.138Z,22.09
2022-10-30T15:58:03.337Z,22.02
2022-10-30T16:00:34.547Z,21.98
2022-10-30T16:03:17.995Z,21.99
2022-10-30T16:05:44.919Z,21.85
2022-10-30T16:08:19.977Z,21.69
2022-10-30T16:10:47.458Z,21.54
2022-10-30T16:13:19.939Z,21.47
2022-10-30T16:15:47.743Z,21.43
2022-10-30T16:18:26.921Z,21.33
2022-10-30T16:21:18.775Z,21.17
2022-10-30T16:23:55.617Z,21.06
2022-10-30T16:26:24.779Z,21.08
2022-10-30T16:28:51.737Z,21.08
2022-10-30T16:31:20.403Z,21.05
2022-10-30T16:33:48.803Z,21.02
2022-10-30T16:36:18.231Z,21.00
2022-10-30T16:38:47.741Z,20.96
2022-10-30T16:41:14.885Z,20.93
2022-10-30T16:43:48.398Z,20.93
2022-10-30T16:46:15.130Z,20.88
2022-10-30T16:49:17.296Z,20.84
2022-10-30T16:51:44.317Z,20.82
2022-10-30T16:54:24.921Z,20.76
2022-10-30T16:56:55.637Z,20.68
2022-10-30T16:59:48.321Z,20.62
2022-10-30T17:02:19.592Z,20.56
2022-10-30T17:04:52.481Z,20.42
2022-10-30T17:07:25.418Z,20.40
2022-10-30T17:09:54.171Z,20.37
2022-10-30T17:12:25.369Z,20.39
2022-10-30T17:14:56.113Z,20.39
2022-10-30T17:17:30.615Z,20.35
2022-10-30T17:20:00.712Z,20.31
2022-10-30T17:22:28.392Z,20.30
2022-10-30T17:24:55.802Z,20.24
2022-10-30T17:27:47.541Z,20.18
2022-10-30T17:30:36.044Z,20.11
2022-10-30T17:33:24.345Z,20.03
2022-10-30T17:38:24.001Z,20.00
2022-10-30T17:40:50.919Z,20.01
2022-10-30T17:43:17.729Z,20.02
2022-10-30T17:45:44.985Z,20.03
2022-10-30T17:48:14.361Z,20.00
2022-10-30T17:50:42.120Z,19.99
2022-10-30T17:53:21.860Z,19.95
2022-10-30T17:55:56.942Z,19.93
2022-10-30T17:58:23.751Z,19.92
2022-10-30T18:00:50.601Z,19.90
2022-10-30T18:03:17.454Z,19.89
2022-10-30T18:05:46.002Z,19.89
2022-10-30T18:08:12.727Z,19.88
2022-10-30T18:10:39.487Z,19.85
2022-10-30T18:13:06.246Z,19.82
2022-10-30T18:15:39.264Z,19.78
2022-10-30T18:18:06.306Z,19.77
2022-10-30T18:20:33.874Z,19.76
2022-10-30T18:23:01.969Z,19.74
2022-10-30T18:25:36.039Z,19.71
2022-10-30T18:28:03.032Z,19.70
2022-10-30T18:30:30.521Z,19.68
2022-10-30T18:32:57.694Z,19.65
2022-10-30T18:35:36.239Z,19.61
2022-10-30T18:38:04.605Z,19.52
2022-10-30T18:40:32.366Z,19.48
2022-10-30T18:42:59.382Z,19.45
2022-10-30T18:45:35.527Z,19.43
2022-10-30T18:48:02.883Z,19.42
2022-10-30T18:50:30.934Z,19.40
2022-10-30T18:52:59.069Z,19.39
2022-10-30T18:55:33.905Z,19.37
2022-10-30T18:58:01.850Z,19.37
2022-10-30T19:00:39.708Z,19.36
2022-10-30T19:03:17.138Z,19.37
2022-10-30T19:05:46.770Z,19.33
2022-10-30T19:08:13.925Z,19.32
2022-10-30T19:10:46.007Z,19.34
2022-10-30T19:13:21.018Z,19.30
2022-10-30T19:15:59.047Z,19.29
2022-10-30T19:18:28.527Z,19.29
2022-10-30T19:21:04.341Z,19.27
2022-10-30T19:23:33.548Z,19.26
2022-10-30T19:26:00.433Z,19.25
2022-10-30T19:28:27.357Z,19.16
2022-10-30T19:30:54.901Z,19.15
2022-10-30T19:33:23.429Z,19.08
2022-10-30T19:36:02.055Z,19.02
2022-10-30T19:38:30.207Z,18.92
2022-10-30T19:40:57.227Z,18.94
2022-10-30T19:43:24.855Z,18.87
2022-10-30T19:45:59.272Z,18.77
2022-10-30T19:48:56.820Z,18.70
2022-10-30T19:51:13.347Z,18.59
2022-10-30T19:53:40.808Z,18.58
2022-10-30T19:56:10.821Z,18.60
2022-10-30T19:58:37.642Z,18.63
2022-10-30T20:01:07.861Z,18.53
2022-10-30T20:03:35.176Z,18.49
2022-10-30T20:06:02.025Z,18.46
2022-10-30T20:08:28.891Z,18.47
2022-10-30T20:10:58.212Z,18.47
2022-10-30T20:13:26.641Z,18.43
2022-10-30T20:15:54.643Z,18.36
2022-10-30T20:18:24.345Z,18.37
2022-10-30T20:20:53.809Z,18.38
2022-10-30T20:23:21.961Z,18.31
2022-10-30T20:25:50.851Z,18.24
2022-10-30T20:28:40.455Z,18.13
2022-10-30T20:31:10.955Z,17.98
2022-10-30T20:33:38.176Z,17.88
2022-10-30T20:36:05.586Z,17.83
2022-10-30T20:38:33.839Z,17.75
2022-10-30T20:41:02.688Z,17.72
2022-10-30T20:43:38.713Z,17.68
2022-10-30T20:46:10.250Z,17.72
2022-10-30T20:48:38.183Z,17.68
2022-10-30T20:51:07.278Z,17.65
2022-10-30T20:53:34.611Z,17.60
2022-10-30T20:56:04.979Z,17.59
2022-10-30T20:58:31.771Z,17.66
2022-10-30T21:01:00.777Z,17.65
2022-10-30T21:03:27.953Z,17.65
2022-10-30T21:05:57.667Z,17.60
2022-10-30T21:08:25.252Z,17.56
2022-10-30T21:10:52.178Z,17.52
2022-10-30T21:13:18.972Z,17.52
2022-10-30T21:15:45.785Z,17.48
2022-10-30T21:18:13.226Z,17.43
2022-10-30T21:20:41.269Z,17.38
2022-10-30T21:23:08.595Z,17.37
2022-10-30T21:25:35.884Z,17.32
2022-10-30T21:28:03.254Z,17.33
2022-10-30T21:30:30.146Z,17.33
2022-10-30T21:32:59.187Z,17.31
2022-10-30T21:35:27.140Z,17.28
2022-10-30T21:37:54.181Z,17.30
2022-10-30T21:40:21.228Z,17.27
2022-10-30T21:42:48.688Z,17.25
2022-10-30T21:45:15.576Z,17.31
2022-10-30T21:47:42.355Z,17.38
2022-10-30T21:50:12.352Z,17.40
2022-10-30T21:52:40.408Z,17.38
2022-10-30T21:55:08.042Z,17.38
2022-10-30T21:57:35.224Z,17.35
2022-10-30T22:00:05.728Z,17.37
2022-10-30T22:02:35.031Z,17.33
2022-10-30T22:05:01.807Z,17.31
2022-10-30T22:07:28.632Z,17.27
2022-10-30T22:09:55.418Z,17.21
2022-10-30T22:12:22.196Z,17.16
2022-10-30T22:14:48.968Z,17.18
2022-10-30T22:17:15.905Z,17.12
2022-10-30T22:19:42.665Z,17.12
2022-10-30T22:22:11.192Z,17.11
2022-10-30T22:24:38.109Z,17.08
2022-10-30T22:27:04.841Z,17.05
2022-10-30T22:29:31.760Z,17.02
2022-10-30T22:31:58.498Z,17.02
2022-10-30T22:34:25.288Z,17.00
2022-10-30T22:36:52.025Z,16.99
2022-10-30T22:39:18.831Z,16.97
2022-10-30T22:41:45.601Z,16.99
2022-10-30T22:44:14.504Z,16.98
2022-10-30T22:46:41.444Z,17.00
2022-10-30T22:49:08.736Z,16.99
2022-10-30T22:51:37.199Z,17.01
2022-10-30T22:54:06.447Z,17.01
2022-10-30T22:56:35.569Z,16.96
2022-10-30T22:59:15.286Z,16.95
2022-10-30T23:01:42.900Z,16.89
2022-10-30T23:04:12.029Z,16.90
2022-10-30T23:06:38.768Z,16.91
2022-10-30T23:09:09.057Z,16.95
2022-10-30T23:11:36.226Z,16.93
2022-10-30T23:14:03.874Z,16.88
2022-10-30T23:16:30.828Z,16.88
2022-10-30T23:19:00.202Z,16.87
2022-10-30T23:21:29.004Z,16.93
2022-10-30T23:23:56.506Z,17.00
2022-10-30T23:26:29.813Z,16.99
2022-10-30T23:28:57.583Z,17.01
2022-10-30T23:31:39.539Z,16.98
2022-10-30T23:34:14.970Z,16.96
2022-10-30T23:36:43.308Z,16.98
2022-10-30T23:39:15.144Z,16.99
2022-10-30T23:41:41.925Z,16.97
2022-10-30T23:44:12.542Z,16.96
2022-10-30T23:46:40.001Z,16.92
2022-10-30T23:49:07.639Z,16.87
2022-10-30T23:51:36.307Z,16.87
2022-10-30T23:54:04.671Z,16.86
2022-10-30T23:56:32.398Z,16.86
2022-10-30T23:58:59.377Z,16.80
